Time;durP1;ratioP1;P1;durP2;ratioP2;P2;SDS_P1;SDS_P2;PMS_P1;PMS_P2;Temp;Humidity;BMP_temperature;BMP_pressure;BME280_temperature;BME280_humidity;BME280_pressure;Samples;Min_cycle;Max_cycle;Signal;HPM_P1;HPM_P2
2023/05/06 00:00:32;;;;;;;13.70;12.48;;;14.20;99.90;;;14.95;100.00;97976.31;5111506;28;20720;-64
2023/05/06 00:03:05;;;;;;;15.18;13.65;;;14.20;99.90;;;14.95;100.00;97976.31;5114984;29;20212;-64
2023/05/06 00:05:39;;;;;;;13.95;12.77;;;14.20;99.90;;;14.96;100.00;97975.50;5114787;28;20663;-63
2023/05/06 00:08:12;;;;;;;14.27;12.93;;;14.20;99.90;;;15.00;100.00;97978.28;5112979;28;20201;-69
2023/05/06 00:10:45;;;;;;;13.27;12.10;;;14.20;99.90;;;14.95;100.00;97972.03;5111007;28;22047;-64
2023/05/06 00:13:18;;;;;;;13.50;12.20;;;14.10;99.90;;;14.87;100.00;97966.56;5116041;28;20209;-64
2023/05/06 00:15:53;;;;;;;12.60;11.60;;;14.10;99.90;;;14.82;100.00;97965.53;5112473;28;20212;-64
2023/05/06 00:18:26;;;;;;;13.30;12.15;;;14.10;99.90;;;14.78;100.00;97963.63;5117901;29;20231;-65
2023/05/06 00:20:59;;;;;;;12.73;11.60;;;14.10;99.90;;;14.77;100.00;97964.44;5112560;28;20201;-65
2023/05/06 00:23:32;;;;;;;13.93;12.73;;;14.10;99.90;;;14.77;100.00;97964.44;5115334;28;20575;-63
2023/05/06 00:26:05;;;;;;;13.63;12.32;;;14.10;99.90;;;14.78;100.00;97962.75;5111120;28;20220;-64
2023/05/06 00:28:38;;;;;;;12.63;11.52;;;14.10;99.90;;;14.75;100.00;97960.91;5118697;28;20250;-64
2023/05/06 00:31:13;;;;;;;13.65;12.48;;;14.10;99.90;;;14.76;100.00;97967.81;5117372;29;20225;-66
2023/05/06 00:33:46;;;;;;;14.32;13.10;;;14.10;99.90;;;14.75;100.00;97958.34;5121007;28;20836;-69
2023/05/06 00:36:19;;;;;;;14.15;12.77;;;14.00;99.90;;;14.77;100.00;97963.56;5113474;28;20250;-64
2023/05/06 00:38:52;;;;;;;13.70;12.40;;;14.10;99.90;;;14.74;100.00;97974.59;5120023;28;20224;-65
2023/05/06 00:41:25;;;;;;;12.80;11.57;;;14.00;99.90;;;14.76;100.00;97972.94;5117037;28;20201;-67
2023/05/06 00:43:58;;;;;;;13.60;12.18;;;14.00;99.90;;;14.81;100.00;97970.59;5120326;28;20208;-64
2023/05/06 00:46:33;;;;;;;12.48;11.38;;;14.10;99.90;;;14.81;100.00;97965.44;5114297;28;20213;-64
2023/05/06 00:49:06;;;;;;;12.77;11.65;;;14.10;99.90;;;14.77;100.00;97967.00;5117795;28;20227;-64
2023/05/06 00:51:39;;;;;;;12.45;11.15;;;14.00;99.90;;;14.74;100.00;97969.47;5120496;28;20236;-64
2023/05/06 00:54:13;;;;;;;12.75;11.65;;;14.00;99.90;;;14.71;100.00;97960.72;5105184;28;20212;-63
2023/05/06 00:56:46;;;;;;;12.13;11.02;;;13.90;99.90;;;14.70;100.00;97962.41;5116135;28;20210;-64
2023/05/06 00:59:20;;;;;;;13.05;11.85;;;14.00;99.90;;;14.71;100.00;97968.41;5116822;28;20233;-64
2023/05/06 01:01:54;;;;;;;13.48;12.27;;;14.00;99.90;;;14.69;100.00;97955.50;5116421;28;20197;-63
2023/05/06 01:04:28;;;;;;;14.32;12.93;;;14.00;99.90;;;14.69;100.00;97959.78;5118738;28;20204;-63
2023/05/06 01:07:11;;;;;;;15.30;13.93;;;14.00;99.90;;;14.69;100.00;97960.66;5112668;28;20205;-63
2023/05/06 01:09:52;;;;;;;14.25;12.95;;;14.00;99.90;;;14.69;100.00;97965.81;5115860;28;20229;-66
2023/05/06 01:12:33;;;;;;;13.38;12.10;;;14.00;99.90;;;14.68;100.00;97966.63;5120054;28;20791;-63
2023/05/06 01:15:11;;;;;;;12.98;11.68;;;14.00;99.90;;;14.66;100.00;97965.69;5115102;28;20212;-67
2023/05/06 01:17:50;;;;;;;12.60;11.40;;;13.90;99.90;;;14.66;100.00;97965.69;5117731;28;20212;-63
2023/05/06 01:20:25;;;;;;;13.27;11.98;;;13.90;99.90;;;14.67;100.00;97963.97;5116903;28;20229;-64
2023/05/06 01:22:58;;;;;;;14.35;12.95;;;13.90;99.90;;;14.66;100.00;97963.09;5116100;28;20205;-63
2023/05/06 01:25:32;;;;;;;16.08;14.55;;;13.90;99.90;;;14.59;100.00;97958.50;5118211;28;20205;-64
2023/05/06 01:28:09;;;;;;;18.70;16.80;;;13.90;99.90;;;14.56;100.00;97961.81;5118018;28;20206;-64
2023/05/06 01:30:59;;;;;;;16.48;14.88;;;13.80;99.90;;;14.58;100.00;97960.19;5115856;28;20286;-64
2023/05/06 01:33:40;;;;;;;18.83;16.83;;;13.90;99.90;;;14.59;100.00;97963.63;5106603;28;20204;-64
2023/05/06 01:36:21;;;;;;;19.55;17.67;;;13.90;99.90;;;14.60;100.00;97961.16;5112590;28;20604;-66
2023/05/06 01:39:06;;;;;;;21.88;19.40;;;13.90;99.90;;;14.63;100.00;97962.97;5114788;28;20266;-65
2023/05/06 01:41:41;;;;;;;22.08;19.77;;;13.90;99.90;;;14.66;100.00;97967.38;5115450;28;20675;-65
2023/05/06 01:44:15;;;;;;;22.75;20.33;;;13.90;99.90;;;14.64;100.00;97963.03;5118679;28;20296;-65
2023/05/06 01:46:49;;;;;;;23.52;20.77;;;13.90;99.90;;;14.65;100.00;97956.22;5117447;28;20639;-65
2023/05/06 01:49:24;;;;;;;21.58;19.48;;;13.90;99.90;;;14.64;100.00;97967.28;5113137;28;20227;-66
2023/05/06 01:51:58;;;;;;;25.25;19.88;;;13.90;99.90;;;14.66;100.00;97960.53;5118370;28;20315;-63
2023/05/06 01:54:31;;;;;;;21.63;19.42;;;13.90;99.90;;;14.62;100.00;97953.47;5109476;28;20297;-63
2023/05/06 01:57:06;;;;;;;23.45;18.67;;;13.90;99.90;;;14.59;100.00;97961.06;5118516;28;20243;-65
2023/05/06 01:59:39;;;;;;;23.10;19.90;;;13.90;99.90;;;14.58;100.00;97962.75;5115451;28;20228;-64
2023/05/06 02:02:12;;;;;;;20.83;18.30;;;13.90;99.90;;;14.55;100.00;97965.22;5116371;28;20200;-65
2023/05/06 02:04:45;;;;;;;22.50;18.20;;;13.80;99.90;;;14.56;100.00;97968.66;5116687;28;20239;-63
2023/05/06 02:07:19;;;;;;;19.48;17.40;;;13.80;99.90;;;14.57;100.00;97973.00;5111780;28;20201;-64
2023/05/06 02:09:52;;;;;;;20.02;18.02;;;13.80;99.90;;;14.53;100.00;97973.66;5112718;28;20225;-63
2023/05/06 02:12:26;;;;;;;22.13;19.80;;;13.80;99.90;;;14.51;100.00;97975.28;5113014;28;20212;-63
2023/05/06 02:14:59;;;;;;;22.77;20.35;;;13.80;99.90;;;14.51;100.00;97972.72;5117996;28;20204;-64
2023/05/06 02:17:34;;;;;;;21.50;19.17;;;13.80;99.90;;;14.52;100.00;97974.50;5118391;28;20703;-63
2023/05/06 02:20:09;;;;;;;22.83;20.50;;;13.80;99.90;;;14.53;100.00;97974.53;5115953;28;20673;-64
2023/05/06 02:22:42;;;;;;;23.77;21.27;;;13.80;99.90;;;14.54;100.00;97965.16;5106813;28;20205;-63
2023/05/06 02:25:15;;;;;;;25.02;22.05;;;13.80;99.90;;;14.61;100.00;97968.03;5113672;28;20319;-63
2023/05/06 02:27:49;;;;;;;25.13;21.58;;;13.80;99.90;;;14.59;100.00;97966.22;5118076;28;20213;-66
2023/05/06 02:30:22;;;;;;;25.42;22.67;;;13.80;99.90;;;14.59;100.00;97955.91;5114173;28;20605;-67
2023/05/06 02:32:56;;;;;;;26.67;23.80;;;13.80;99.90;;;14.57;100.00;97960.16;5113119;28;20212;-64
2023/05/06 02:35:29;;;;;;;24.92;22.38;;;13.80;99.90;;;14.52;100.00;97956.50;5117407;28;20254;-63
2023/05/06 02:38:03;;;;;;;26.13;22.73;;;13.70;99.90;;;14.48;100.00;97960.59;5105449;28;20794;-64
2023/05/06 02:40:36;;;;;;;23.85;21.35;;;13.70;99.90;;;14.43;100.00;97952.66;5114258;28;20209;-65
2023/05/06 02:43:10;;;;;;;22.42;20.13;;;13.60;99.90;;;14.43;100.00;97962.09;5113299;28;20578;-63
2023/05/06 02:45:43;;;;;;;24.33;21.70;;;13.60;99.90;;;14.40;100.00;97961.94;5117004;28;20215;-66
2023/05/06 02:48:16;;;;;;;23.33;20.88;;;13.60;99.90;;;14.39;100.00;97968.78;5112637;28;20204;-63
2023/05/06 02:50:50;;;;;;;21.75;19.45;;;13.60;99.90;;;14.36;100.00;97966.06;5113754;28;20232;-63
2023/05/06 02:53:23;;;;;;;25.90;22.25;;;13.60;99.90;;;14.34;100.00;97967.69;5113960;28;20212;-63
2023/05/06 02:55:56;;;;;;;23.45;20.95;;;13.60;99.90;;;14.38;100.00;97967.00;5111178;28;20668;-63
2023/05/06 02:58:31;;;;;;;21.65;19.33;;;13.60;99.90;;;14.37;100.00;97978.13;5113471;28;20220;-63
2023/05/06 03:01:04;;;;;;;21.10;19.00;;;13.60;99.90;;;14.36;100.00;97960.03;5106911;29;20203;-63
2023/05/06 03:03:37;;;;;;;21.30;18.10;;;13.60;99.90;;;14.33;100.00;97960.78;5115247;28;20654;-65
2023/05/06 03:06:10;;;;;;;20.25;18.15;;;13.50;99.90;;;14.30;100.00;97962.34;5108862;29;20205;-63
2023/05/06 03:08:43;;;;;;;22.00;19.17;;;13.50;99.90;;;14.30;100.00;97963.22;5113929;28;20248;-63
2023/05/06 03:11:16;;;;;;;19.77;17.73;;;13.40;99.90;;;14.27;100.00;97960.50;5115187;28;20604;-63
2023/05/06 03:13:50;;;;;;;18.77;16.98;;;13.40;99.90;;;14.19;100.00;97957.63;5111703;28;20209;-66
2023/05/06 03:16:23;;;;;;;19.73;17.48;;;13.40;99.90;;;14.16;100.00;97961.72;5114108;28;20214;-63
2023/05/06 03:18:56;;;;;;;21.35;17.63;;;13.40;99.90;;;14.14;100.00;97963.38;5111343;28;20225;-63
2023/05/06 03:21:30;;;;;;;20.90;17.38;;;13.40;99.90;;;14.10;100.00;97961.47;5111206;28;20209;-65
2023/05/06 03:24:04;;;;;;;20.17;17.83;;;13.30;99.90;;;14.11;100.00;97963.25;5109175;28;20450;-63
2023/05/06 03:26:37;;;;;;;22.25;19.95;;;13.40;99.90;;;14.09;100.00;97963.16;5123753;28;20296;-64
2023/05/06 03:29:11;;;;;;;22.98;20.33;;;13.30;99.90;;;14.08;100.00;97963.06;5109083;28;20236;-65
2023/05/06 03:31:44;;;;;;;22.42;18.95;;;13.30;99.90;;;14.05;100.00;97961.28;5110181;28;20232;-64
2023/05/06 03:34:17;;;;;;;21.20;18.85;;;13.30;99.90;;;14.10;100.00;97961.47;5104629;28;20696;-63
2023/05/06 03:36:50;;;;;;;20.90;18.67;;;13.30;99.90;;;14.08;100.00;97957.94;5116106;28;20695;-65
2023/05/06 03:39:24;;;;;;;24.70;20.10;;;13.30;99.90;;;14.09;100.00;97959.72;5117284;28;20237;-63
2023/05/06 03:41:57;;;;;;;21.85;19.13;;;13.30;99.90;;;14.09;100.00;97957.16;5105724;28;20220;-67
2023/05/06 03:44:31;;;;;;;20.45;18.27;;;13.30;99.90;;;14.09;100.00;97960.59;5119100;28;20227;-63
2023/05/06 03:47:04;;;;;;;21.38;19.15;;;13.30;99.90;;;14.11;100.00;97956.41;5117053;28;20206;-63
2023/05/06 03:49:37;;;;;;;20.67;18.25;;;13.30;99.90;;;14.16;100.00;97956.59;5115973;28;20232;-64
2023/05/06 03:52:11;;;;;;;17.38;15.65;;;13.40;99.90;;;14.16;100.00;97956.59;5111697;28;20218;-63
2023/05/06 03:54:44;;;;;;;17.77;15.88;;;13.40;99.90;;;14.16;100.00;97956.59;5112117;28;20209;-63
2023/05/06 03:57:17;;;;;;;17.38;15.50;;;13.40;99.90;;;14.11;100.00;97958.09;5116575;28;20197;-64
2023/05/06 03:59:51;;;;;;;17.33;15.63;;;13.40;99.90;;;14.09;100.00;97959.72;5115844;28;20224;-63
2023/05/06 04:02:24;;;;;;;19.92;17.80;;;13.40;99.90;;;14.12;100.00;97959.84;5111899;28;20209;-64
2023/05/06 04:04:57;;;;;;;18.88;16.63;;;13.40;99.90;;;14.12;100.00;97955.56;5115555;28;20205;-67
2023/05/06 04:07:30;;;;;;;18.63;16.67;;;13.40;99.90;;;14.14;100.00;97958.22;5117181;28;20209;-63
2023/05/06 04:10:05;;;;;;;19.38;16.77;;;13.40;99.90;;;14.14;100.00;97948.81;5117244;28;20712;-62
2023/05/06 04:12:38;;;;;;;18.45;16.35;;;13.40;99.90;;;14.15;100.00;97949.69;5116533;28;20251;-63
2023/05/06 04:15:12;;;;;;;17.75;15.90;;;13.30;99.90;;;14.09;100.00;97950.31;5113230;28;20645;-65
2023/05/06 04:17:46;;;;;;;18.48;15.65;;;13.30;99.90;;;14.09;100.00;97952.00;5111188;28;20204;-64
2023/05/06 04:20:19;;;;;;;15.90;14.18;;;13.30;99.90;;;14.11;100.00;97950.38;5108186;28;20662;-68
2023/05/06 04:22:52;;;;;;;14.77;13.27;;;13.30;99.90;;;14.10;100.00;97946.91;5109631;28;20588;-63
2023/05/06 04:25:26;;;;;;;17.05;15.27;;;13.30;99.90;;;14.11;100.00;97950.38;5106971;28;20212;-64
2023/05/06 04:27:59;;;;;;;20.63;17.25;;;13.30;99.90;;;14.12;100.00;97953.00;5118538;29;20657;-64
2023/05/06 04:30:34;;;;;;;20.73;17.33;;;13.30;99.90;;;14.14;100.00;97964.25;5104707;28;20347;-65
2023/05/06 04:33:07;;;;;;;22.92;18.23;;;13.40;99.90;;;14.15;100.00;97962.56;5110517;28;20577;-64
2023/05/06 04:35:41;;;;;;;25.30;20.05;;;13.40;99.90;;;14.17;100.00;97954.09;5105746;28;20208;-68
2023/05/06 04:38:14;;;;;;;25.90;20.63;;;13.40;99.90;;;14.17;100.00;97961.81;5108447;28;20681;-66
2023/05/06 04:40:48;;;;;;;29.77;24.33;;;13.40;99.90;;;14.13;100.00;97962.47;5115517;28;20222;-65
2023/05/06 04:43:21;;;;;;;30.73;24.58;;;13.40;99.90;;;14.11;100.00;97966.69;5115660;28;20238;-65
2023/05/06 04:45:56;;;;;;;29.65;24.45;;;13.30;99.90;;;14.23;100.00;97978.31;5113196;28;20332;-62
2023/05/06 04:48:29;;;;;;;29.23;24.48;;;13.40;99.90;;;14.21;100.00;97975.66;5112916;28;20231;-66
2023/05/06 04:51:03;;;;;;;20.63;18.52;;;13.40;99.90;;;14.25;100.00;97977.59;5112991;28;20648;-64
2023/05/06 04:53:36;;;;;;;19.35;17.45;;;13.40;99.90;;;14.22;100.00;97977.41;5110528;29;20779;-64
2023/05/06 04:56:09;;;;;;;19.00;17.10;;;13.40;99.90;;;14.27;100.00;97981.09;5113800;28;20631;-66
2023/05/06 04:58:42;;;;;;;21.67;17.90;;;13.40;99.90;;;14.29;100.00;97984.63;5115529;28;20295;-65
2023/05/06 05:01:18;;;;;;;21.02;18.13;;;13.40;99.90;;;14.22;100.00;97982.56;5110717;28;20214;-67
2023/05/06 05:03:51;;;;;;;21.02;18.73;;;13.40;99.90;;;14.22;100.00;97990.28;5112297;28;20610;-67
2023/05/06 05:06:24;;;;;;;23.63;19.48;;;13.40;99.90;;;14.29;100.00;97989.75;5112379;28;20205;-67
2023/05/06 05:08:57;;;;;;;23.88;20.45;;;13.40;99.90;;;14.28;100.00;97988.00;5118140;28;20599;-65
2023/05/06 05:11:31;;;;;;;25.55;20.98;;;13.50;99.90;;;14.33;100.00;97991.63;5112261;28;20212;-66
2023/05/06 05:14:04;;;;;;;24.08;20.95;;;13.50;99.90;;;14.39;100.00;97991.94;5117207;29;20224;-65
2023/05/06 05:16:38;;;;;;;26.50;21.58;;;13.50;99.90;;;14.37;100.00;97997.81;5117002;28;20205;-63
2023/05/06 05:19:11;;;;;;;21.05;18.92;;;13.50;99.90;;;14.41;100.00;97994.56;5115295;28;20230;-62
2023/05/06 05:21:44;;;;;;;22.70;20.25;;;13.50;99.90;;;14.50;100.00;97999.22;5114805;28;20741;-62
2023/05/06 05:24:17;;;;;;;23.90;21.42;;;13.60;99.90;;;14.54;100.00;97996.91;5110136;28;20213;-62
2023/05/06 05:26:50;;;;;;;25.77;21.30;;;13.70;99.90;;;14.71;100.00;97992.50;5110654;28;20212;-63
2023/05/06 05:29:23;;;;;;;22.13;19.83;;;13.70;99.90;;;14.76;100.00;97998.69;5117613;28;20323;-63
2023/05/06 05:31:58;;;;;;;21.20;19.10;;;13.80;99.90;;;14.74;100.00;97995.19;5121459;28;20201;-61
2023/05/06 05:34:31;;;;;;;20.20;18.20;;;13.80;99.90;;;14.77;100.00;97994.44;5122088;28;20238;-63
2023/05/06 05:37:04;;;;;;;20.80;18.65;;;13.80;99.90;;;14.82;100.00;97998.06;5134277;28;20207;-61
2023/05/06 05:39:37;;;;;;;20.70;18.70;;;13.80;99.90;;;15.09;100.00;98006.97;5115820;28;20229;-64
2023/05/06 05:42:10;;;;;;;20.20;18.25;;;14.10;99.90;;;15.45;100.00;97998.09;5112657;28;20209;-66
2023/05/06 05:44:43;;;;;;;19.42;17.52;;;14.20;99.90;;;15.66;100.00;97998.94;5113790;28;20531;-64
2023/05/06 05:47:17;;;;;;;19.17;17.33;;;14.40;99.90;;;15.78;100.00;98003.75;5116431;28;20693;-65
2023/05/06 05:49:50;;;;;;;16.58;15.07;;;14.50;99.90;;;15.80;100.00;98008.97;5115655;28;20602;-64
2023/05/06 05:52:23;;;;;;;17.73;15.98;;;14.60;99.90;;;16.20;100.00;98009.66;5119290;28;20204;-64
2023/05/06 05:54:56;;;;;;;17.63;16.02;;;14.90;99.90;;;16.63;100.00;98010.34;5118903;28;20205;-65
2023/05/06 05:57:29;;;;;;;15.90;14.40;;;15.30;99.90;;;16.86;100.00;98004.31;5109904;28;20208;-65
2023/05/06 06:00:03;;;;;;;16.40;14.90;;;15.50;99.90;;;16.77;100.00;98010.84;5116287;28;20228;-69
2023/05/06 06:02:37;;;;;;;14.93;13.57;;;15.50;99.90;;;16.73;100.00;98011.53;5118441;28;20204;-65
2023/05/06 06:05:10;;;;;;;15.07;13.73;;;15.40;99.90;;;16.60;100.00;98017.97;5114114;28;20200;-66
2023/05/06 06:07:44;;;;;;;15.57;14.18;;;15.30;99.90;;;16.44;100.00;98021.69;5119153;28;20205;-65
2023/05/06 06:10:17;;;;;;;14.30;12.90;;;15.20;99.90;;;16.54;100.00;98026.38;5118327;29;20689;-66
2023/05/06 06:12:50;;;;;;;13.52;12.50;;;15.20;99.90;;;16.81;100.00;98021.34;5118205;28;20227;-66
2023/05/06 06:15:23;;;;;;;11.75;10.82;;;15.40;99.90;;;17.45;100.00;98017.47;5113463;28;20665;-67
2023/05/06 06:17:57;;;;;;;11.50;10.57;;;15.80;99.90;;;17.95;100.00;98020.81;5107655;28;20669;-65
2023/05/06 06:20:30;;;;;;;9.13;8.43;;;16.30;99.90;;;18.06;99.98;98021.16;5109922;28;20227;-66
2023/05/06 06:23:03;;;;;;;8.32;7.72;;;16.40;99.90;;;17.98;95.23;98031.25;5110494;28;20197;-65
2023/05/06 06:25:36;;;;;;;8.60;7.85;;;16.40;99.90;;;18.07;97.39;98022.00;5113090;28;20618;-64
2023/05/06 06:28:09;;;;;;;7.80;7.20;;;16.50;99.90;;;18.26;96.56;98023.41;5116085;28;20301;-64
2023/05/06 06:30:43;;;;;;;7.90;7.30;;;16.60;99.90;;;18.37;94.21;98030.69;5112369;28;20677;-64
2023/05/06 06:33:17;;;;;;;7.32;6.82;;;16.70;99.90;;;18.77;94.29;98026.69;5113405;28;20251;-65
2023/05/06 06:35:50;;;;;;;7.35;6.85;;;17.10;99.90;;;19.12;90.34;98027.59;5116634;29;20208;-63
2023/05/06 06:38:24;;;;;;;7.80;7.10;;;17.30;99.90;;;19.17;87.60;98024.25;5118085;28;20209;-63
2023/05/06 06:40:57;;;;;;;7.20;6.70;;;17.30;99.90;;;18.90;94.29;98027.88;5117388;28;20212;-63
2023/05/06 06:43:30;;;;;;;9.45;8.63;;;17.00;99.90;;;18.52;89.72;98030.25;5109764;28;20203;-67
2023/05/06 06:46:03;;;;;;;9.25;8.45;;;16.80;99.90;;;18.75;90.03;98023.16;5113079;28;20204;-66
2023/05/06 06:48:38;;;;;;;9.60;8.80;;;17.10;99.90;;;19.02;84.79;98019.53;5110391;28;20305;-64
2023/05/06 06:51:11;;;;;;;8.85;8.15;;;17.40;99.90;;;19.50;81.59;98019.91;5107499;28;20204;-64
2023/05/06 06:53:47;;;;;;;9.27;8.57;;;17.70;99.90;;;19.52;82.48;98019.97;5111526;28;20316;-63
2023/05/06 06:56:20;;;;;;;8.60;8.00;;;17.70;99.90;;;19.35;82.95;98022.13;5109611;28;20200;-64
2023/05/06 06:58:53;;;;;;;7.88;7.38;;;17.50;99.90;;;19.06;84.20;98024.84;5105016;29;20584;-63
2023/05/06 07:01:26;;;;;;;8.43;7.82;;;17.30;99.90;;;18.97;87.41;98027.22;5116449;28;20209;-63
2023/05/06 07:04:01;;;;;;;8.57;7.97;;;17.10;99.90;;;18.78;87.73;98037.91;5112196;28;20211;-64
2023/05/06 07:06:35;;;;;;;9.02;8.23;;;17.00;99.90;;;19.01;92.38;98035.94;5116174;28;20207;-66
2023/05/06 07:09:08;;;;;;;9.20;8.60;;;17.00;99.90;;;19.07;88.04;98042.16;5124020;28;20317;-64
2023/05/06 07:11:41;;;;;;;8.68;8.07;;;17.20;99.90;;;18.91;90.07;98045.16;5109631;28;20724;-63
2023/05/06 07:14:14;;;;;;;9.73;8.82;;;17.10;99.90;;;18.68;87.39;98060.03;5114481;28;20315;-66
2023/05/06 07:16:47;;;;;;;9.18;8.50;;;16.90;99.90;;;18.48;92.10;98053.41;5111471;28;20648;-66
2023/05/06 07:19:24;;;;;;;8.43;7.72;;;16.80;99.90;;;18.28;91.34;98051.09;5114682;28;20227;-64
2023/05/06 07:21:57;;;;;;;8.75;8.05;;;16.60;99.90;;;18.09;96.02;98049.69;5115973;28;20204;-64
2023/05/06 07:24:30;;;;;;;8.95;8.10;;;16.50;99.90;;;18.01;97.98;98061.50;5112512;28;20200;-65
2023/05/06 07:27:04;;;;;;;9.07;8.38;;;16.40;99.90;;;17.90;94.89;98062.88;5114023;28;20205;-63
2023/05/06 07:29:37;;;;;;;9.35;8.65;;;16.30;99.90;;;17.87;95.84;98057.59;5116137;28;20586;-63
2023/05/06 07:32:10;;;;;;;10.32;9.43;;;16.40;99.90;;;17.85;89.01;98060.13;5117307;29;20585;-65
2023/05/06 07:34:44;;;;;;;8.98;8.23;;;16.30;99.90;;;17.86;88.85;98054.16;5118335;28;20247;-63
2023/05/06 07:37:17;;;;;;;8.65;8.05;;;16.40;99.90;;;18.59;84.75;98057.19;5119312;28;20206;-63
2023/05/06 07:39:50;;;;;;;8.55;7.95;;;16.80;99.90;;;19.66;85.92;98044.53;5116602;28;20850;-67
2023/05/06 07:42:23;;;;;;;7.07;6.57;;;17.30;99.90;;;20.60;78.54;98054.44;5112810;28;20212;-63
2023/05/06 07:44:56;;;;;;;6.90;6.40;;;18.00;99.90;;;20.96;71.70;98050.81;5123660;28;20200;-65
2023/05/06 07:47:31;;;;;;;6.90;6.22;;;18.50;99.90;;;20.97;73.89;98050.84;5116021;28;20209;-64
2023/05/06 07:50:08;;;;;;;6.90;6.30;;;18.50;99.90;;;20.62;71.77;98060.53;5109083;28;20227;-65
2023/05/06 07:52:41;;;;;;;6.93;6.43;;;18.40;99.90;;;20.05;74.94;98061.00;5111286;28;20208;-64
2023/05/06 07:55:14;;;;;;;6.88;6.38;;;18.10;99.90;;;19.41;76.94;98062.88;5118961;28;20592;-64
2023/05/06 07:57:47;;;;;;;8.00;7.40;;;17.70;99.90;;;19.09;81.04;98070.72;5114701;28;20209;-63
2023/05/06 08:00:20;;;;;;;7.75;7.15;;;17.50;99.90;;;18.90;82.89;98070.19;5114016;28;20223;-64
2023/05/06 08:02:53;;;;;;;7.03;6.53;;;17.30;99.90;;;18.67;83.46;98081.59;5115066;28;20675;-64
2023/05/06 08:05:28;;;;;;;7.03;6.45;;;17.10;99.90;;;18.48;82.41;98079.28;5120381;28;20236;-64
2023/05/06 08:08:01;;;;;;;6.95;6.45;;;16.80;99.90;;;18.73;90.82;98075.69;5109699;28;20206;-64
2023/05/06 08:10:34;;;;;;;7.07;6.63;;;16.90;99.90;;;18.60;85.50;98074.47;5120335;28;20264;-65
2023/05/06 08:13:07;;;;;;;7.78;7.28;;;16.90;99.90;;;19.05;91.11;98074.03;5112811;28;20216;-64
2023/05/06 08:15:40;;;;;;;7.88;7.15;;;17.30;99.90;;;19.39;89.45;98078.38;5107383;28;20287;-65
2023/05/06 08:18:13;;;;;;;7.07;6.38;;;17.70;99.90;;;19.54;84.81;98067.53;5118600;28;20260;-64
2023/05/06 08:20:56;;;;;;;7.03;6.60;;;17.90;99.90;;;19.64;87.12;98072.13;5114939;28;20226;-64
2023/05/06 08:23:30;;;;;;;6.70;6.20;;;18.20;99.90;;;20.06;85.41;98068.84;5117313;28;20334;-64
2023/05/06 08:26:03;;;;;;;6.13;5.60;;;18.70;99.90;;;20.24;79.14;98066.63;5115252;28;20205;-64
2023/05/06 08:28:36;;;;;;;5.85;5.45;;;18.90;99.90;;;20.32;79.42;98064.22;5119489;28;20225;-63
2023/05/06 08:31:09;;;;;;;5.90;5.25;;;18.90;99.90;;;20.17;74.60;98063.84;5109633;28;20248;-64
2023/05/06 08:33:42;;;;;;;7.85;6.47;;;18.90;99.90;;;20.12;73.08;98063.78;5111684;28;20200;-64
2023/05/06 08:36:17;;;;;;;11.65;7.15;;;19.00;99.90;;;20.23;75.04;98070.09;5108690;28;20233;-64
2023/05/06 08:38:50;;;;;;;5.43;5.03;;;19.10;99.90;;;20.53;75.83;98078.53;5116879;28;20228;-63
2023/05/06 08:41:26;;;;;;;4.88;4.55;;;19.40;99.90;;;20.95;77.51;98070.75;5115932;28;20254;-63
2023/05/06 08:44:01;;;;;;;4.78;4.47;;;19.70;99.90;;;20.91;71.39;98066.31;5131636;28;20581;-65
2023/05/06 08:46:35;;;;;;;4.90;4.50;;;19.60;99.90;;;20.66;67.28;98072.72;5112944;28;20201;-64
2023/05/06 08:49:09;;;;;;;4.57;4.28;;;19.50;99.90;;;20.42;75.00;98075.66;5112679;28;20225;-64
2023/05/06 08:51:44;;;;;;;5.25;4.85;;;19.10;99.90;;;20.35;73.57;98073.78;5111006;28;20201;-64
2023/05/06 08:54:18;;;;;;;4.95;4.63;;;19.00;99.90;;;20.29;78.31;98065.84;5117233;28;20230;-64
2023/05/06 08:56:53;;;;;;;5.22;4.72;;;18.90;99.90;;;20.43;76.17;98069.63;5110769;28;20208;-63
2023/05/06 08:59:30;;;;;;;5.35;4.85;;;19.10;99.90;;;20.64;71.77;98064.94;5119100;28;20425;-64
2023/05/06 09:02:04;;;;;;;3.80;3.50;;;19.30;99.90;;;20.73;66.55;98071.16;5112307;28;20203;-63
2023/05/06 09:04:37;;;;;;;3.50;3.30;;;19.50;99.90;;;20.83;71.50;98067.88;5118375;28;20657;-64
2023/05/06 09:07:11;;;;;;;4.53;4.13;;;19.60;99.90;;;20.67;69.84;98062.38;5114419;28;20685;-64
2023/05/06 09:09:44;;;;;;;3.90;3.60;;;19.50;99.90;;;20.85;72.67;98067.06;5110304;29;20228;-65
2023/05/06 09:12:18;;;;;;;4.72;4.30;;;19.70;99.90;;;20.96;67.41;98064.69;5114956;29;20576;-64
2023/05/06 09:14:51;;;;;;;4.28;3.90;;;19.80;99.90;;;20.96;61.45;98064.69;5113463;28;20212;-65
2023/05/06 09:17:25;;;;;;;4.20;3.90;;;19.90;99.90;;;20.89;64.53;98062.84;5117132;28;20212;-64
2023/05/06 09:19:59;;;;;;;4.30;4.00;;;19.80;99.90;;;20.95;65.29;98057.75;5118798;28;20314;-65
2023/05/06 09:22:33;;;;;;;4.10;3.80;;;19.80;99.90;;;21.14;67.16;98054.63;5110538;28;20296;-63
2023/05/06 09:25:08;;;;;;;3.67;3.17;;;19.90;99.90;;;21.52;64.86;98062.28;5112339;29;20200;-63
2023/05/06 09:27:41;;;;;;;3.50;3.30;;;20.40;99.90;;;21.46;56.34;98062.19;5119371;28;20250;-64
2023/05/06 09:30:15;;;;;;;3.13;2.88;;;20.50;99.90;;;21.69;59.21;98056.47;5115120;28;20232;-64
2023/05/06 09:32:48;;;;;;;3.08;2.88;;;20.80;99.90;;;21.79;59.25;98067.03;5115743;28;20288;-64
2023/05/06 09:35:22;;;;;;;4.05;3.35;;;21.00;99.90;;;21.85;57.65;98061.06;5115686;28;20243;-64
2023/05/06 09:37:56;;;;;;;3.13;2.90;;;21.00;99.90;;;21.66;56.57;98059.00;5115666;28;20828;-64
2023/05/06 09:40:29;;;;;;;3.13;2.92;;;20.70;99.90;;;21.82;58.25;98067.09;5120903;28;20232;-64
2023/05/06 09:43:03;;;;;;;3.35;3.08;;;20.80;99.90;;;21.85;57.44;98060.19;5108695;28;20239;-65
2023/05/06 09:45:36;;;;;;;2.80;2.60;;;20.80;99.90;;;21.83;57.20;98057.56;5115337;28;20197;-65
2023/05/06 09:48:09;;;;;;;3.05;2.85;;;20.80;99.90;;;22.17;54.98;98053.75;5109907;28;20217;-64
2023/05/06 09:50:43;;;;;;;2.80;2.60;;;21.10;99.90;;;22.18;52.89;98050.31;5118270;28;20200;-64
2023/05/06 09:53:20;;;;;;;3.00;2.70;;;21.10;99.90;;;22.15;53.66;98044.13;5111064;28;20923;-65
2023/05/06 09:55:55;;;;;;;2.90;2.70;;;21.10;99.90;;;22.14;52.61;98045.00;5115697;28;20217;-65
2023/05/06 09:58:30;;;;;;;2.92;2.47;;;21.00;99.90;;;22.17;53.82;98042.44;5117375;28;20220;-64
2023/05/06 10:01:05;;;;;;;2.50;2.30;;;20.80;99.90;;;22.21;53.35;98041.69;5152917;28;20204;-64
2023/05/06 10:03:40;;;;;;;2.97;2.80;;;21.00;99.90;;;22.24;51.96;98041.72;5122158;28;20204;-64
2023/05/06 10:06:14;;;;;;;2.83;2.63;;;21.00;99.90;;;22.22;52.62;98035.59;5107496;28;20204;-65
2023/05/06 10:08:49;;;;;;;2.67;2.47;;;21.20;99.90;;;22.34;52.95;98034.91;5118625;28;20311;-65
2023/05/06 10:11:23;;;;;;;2.33;2.13;;;21.20;99.90;;;22.43;53.04;98035.91;5118707;28;20228;-64
2023/05/06 10:13:56;;;;;;;2.60;2.40;;;21.40;99.90;;;22.48;53.39;98029.00;5118946;28;20207;-65
2023/05/06 10:16:29;;;;;;;2.85;2.55;;;21.40;99.90;;;22.60;50.23;98035.22;5118341;28;20228;-65
2023/05/06 10:19:04;;;;;;;2.30;2.10;;;21.40;99.90;;;22.45;49.95;98034.19;5116579;28;20282;-65
2023/05/06 10:21:42;;;;;;;2.53;2.30;;;21.30;99.60;;;22.34;50.85;98033.16;5111314;28;20695;-64
2023/05/06 10:24:18;;;;;;;2.92;2.33;;;21.30;99.90;;;22.53;50.16;98025.59;5118689;29;20567;-64
2023/05/06 10:26:55;;;;;;;2.35;2.15;;;21.50;99.90;;;22.63;50.53;98017.88;5108941;28;20204;-64
2023/05/06 10:29:28;;;;;;;2.05;1.95;;;21.50;99.90;;;22.65;49.43;98031.81;5115723;28;20282;-64
2023/05/06 10:32:02;;;;;;;2.63;2.42;;;21.60;99.00;;;22.60;49.39;98007.44;5119077;28;20200;-65
2023/05/06 10:34:42;;;;;;;2.30;2.10;;;21.60;99.00;;;22.71;49.00;98007.56;5117019;28;20235;-64